UNR Ag. Experiment Farm, Sparks, Nevada Weather observations

Data are for 10 minute period ending at time listed.
 Day   Time   Solar   Ave.   Ave.  Ave.  Vector  Max.   Baro.   Total    
  of    of     Rad.   Air    Rel.  Wind   Wind   Wind  Press.  Precip.   
Year   Day            Temp.  Hum.  Speed  Dir.   Gust                    
2014   (PST)  Kw/m2    F      %     mph   deg.    mph    mb.     in.     
-------------------------------------------------------------------------
 107    5:40   0.01   36.2    85    0.0     0     0.0   862.6    0.00 
 107    5:50   0.02   36.1    85    0.5    94     1.5   862.5    0.01 
 107    6:00   0.06   36.3    85    0.6     0     2.9   862.6    0.00 
 107    6:10   0.08   37.5    85    0.6   340     1.8   862.6    0.00 
 107    6:20   0.11   40.0    82    0.7    86     2.1   862.6    0.00 
 107    6:30   0.14   42.2    74    0.5   101     2.0   862.7    0.01 
 107    6:40   0.17   43.4    68    0.7   111     1.6   862.6    0.00 
 107    6:50   0.20   46.8    63    0.3   111     1.1   862.6    0.00 
 107    7:00   0.23   48.8    58    0.3   190     1.5   862.6    0.00 
 107    7:10   0.26   50.0    59    0.1   243     1.4   862.5    0.00 
 107    7:20   0.29   50.5    55    0.8   250     2.9   862.5    0.00 
 107    7:30   0.33   50.6    58    1.6   326     2.3   862.3    0.00 
 107    7:40   0.36   51.5    60    0.2    21     1.7   862.2    0.00 
 107    7:50   0.39   53.1    53    0.5   328     1.8   862.1    0.00 
 107    8:00   0.42   54.1    49    0.9   298     3.1   862.0    0.00 
 107    8:10   0.46   54.2    45    1.0   333     2.6   861.8    0.00 
 107    8:20   0.49   55.1    44    1.8     2     3.5   861.5    0.00 
 107    8:30   0.52   55.6    45    1.8   316     3.0   861.4    0.00 
 107    8:40   0.55   56.8    42    1.9     9     3.9   861.4    0.00 
 107    8:50   0.58   58.1    39    1.4    45     3.6   861.4    0.00 
 107    9:00   0.60   59.6    36    0.7    43     2.6   861.4    0.00 
 107    9:10   0.63   60.2    35    1.2    31     2.6   861.3    0.00 
 107    9:20   0.66   60.1    34    1.6   322     3.1   861.3    0.00 
 107    9:30   0.68   61.0    32    1.1   288     2.6   861.2    0.00 
 107    9:40   0.71   61.7    34    1.3   355     2.9   861.1    0.00 
 107    9:50   0.73   62.9    32    1.8    20     3.7   861.2    0.00 
 107   10:00   0.75   64.3    28    1.8   342     4.2   861.2    0.00 
 107   10:10   0.77   64.9    28    2.2    35     4.2   861.2    0.00 
 107   10:20   0.79   65.3    29    2.1   358     4.2   861.2    0.00 
 107   10:30   0.81   66.0    28    2.1     1     3.7   861.2    0.00 
 107   10:40   0.82   67.4    26    2.0    85     4.2   861.1    0.00 
 107   10:50   0.84   68.2    26    3.2    54     6.1   861.0    0.00 
 107   11:00   0.85   68.9    24    2.8   116     6.7   860.8    0.00 
 107   11:10   0.87   69.3    25    3.1    44     5.9   860.7    0.00 
 107   11:20   0.90   69.9    27    3.9    66     7.5   860.6    0.00 
 107   11:30   0.90   69.7    28    4.1    43     8.0   860.4    0.00 
 107   11:40   0.89   70.6    26    3.3    65     8.3   860.4    0.00 
 107   11:50   0.88   71.0    27    4.7    72     8.3   860.3    0.00 
 107   12:00   0.92   72.8    25    3.6   117     8.1   860.1    0.00 
 107   12:10   0.92   72.4    27    5.6    94    14.2   860.0    0.00 
 107   12:20   0.94   71.8    28    2.2   349     6.3   859.9    0.00 
 107   12:30   0.96   72.9    30    3.6    58    14.5   859.7    0.00 
 107   12:40   0.87   73.6    24    7.0   106    13.7   859.6    0.00 
 107   12:50   0.83   74.7    22    7.0   173    16.1   859.6    0.00 
 107   13:00   0.80   73.8    22    3.1   341     6.9   859.5    0.00 
 107   13:10   0.92   74.4    22    1.8    56     5.3   859.4    0.00 
 107   13:20   0.90   76.0    22    7.3   209    18.9   859.3    0.00 
 107   13:30   0.89   75.1    21    7.9   222    15.6   859.3    0.00 
 107   13:40   0.86   76.0    20   13.8   197    21.8   859.2    0.00 
 107   13:50   0.86   75.8    20   12.7   197    22.7   859.1    0.00 
 107   14:00   0.86   75.9    18   16.1   192    23.9   859.0    0.00 
 107   14:10   0.86   75.2    19   13.8   202    22.5   858.9    0.00 
 107   14:20   0.85   75.2    19   12.0   208    24.7   858.8    0.00 
 107   14:30   0.74   76.3    15   14.4   173    23.1   858.6    0.00 
 107   14:40   0.56   75.7    18   13.6   186    21.6   858.6    0.00 
 107   14:50   0.40   74.1    19   12.5   181    20.6   858.7    0.00 
 107   15:00   0.44   73.0    22   11.9   202    22.6   858.5    0.00 
 107   15:10   0.59   73.7    20   17.4   183    23.2   858.4    0.00 
 107   15:20   0.28   73.1    20   14.4   178    21.5   858.4    0.00 
 107   15:30   0.29   72.7    21   12.9   181    19.1   858.2    0.00 
 107   15:40   0.30   71.9    24   11.5   228    16.7   858.3    0.00 
 107   15:50   0.27   70.8    26    9.8   261    18.6   858.3    0.00 
 107   16:00   0.23   69.2    28   16.4   280    24.9   858.1    0.00 
 107   16:10   0.20   68.7    29   14.3   279    21.0   858.1    0.00 
 107   16:20   0.18   69.4    27   11.9   264    17.2   858.2    0.00 
 107   16:30   0.17   69.1    28   11.8   266    19.5   858.4    0.00 
 107   16:40   0.17   68.1    30   11.3   271    19.5   858.5    0.00 
 107   16:50   0.17   68.4    30   11.9   268    19.3   858.5    0.00 
 107   17:00   0.16   67.6    32   11.6   277    19.9   858.6    0.00 
 107   17:10   0.16   67.2    33   16.2   279    23.1   858.5    0.00 
 107   17:20   0.15   67.7    32   13.8   266    21.4   858.6    0.00 
 107   17:30   0.13   67.2    33   11.7   273    21.0   858.6    0.00 
 107   17:40   0.10   67.2    32   10.8   261    15.4   858.5    0.00 
 107   17:50   0.10   66.5    33   10.9   266    16.8   858.5    0.00 
 107   18:00   0.07   66.1    32   10.7   270    15.5   858.5    0.00 
 107   18:10   0.07   65.5    32   13.2   276    18.3   858.5    0.00 
 107   18:20   0.06   65.3    32   12.4   272    18.6   858.6    0.00 
 107   18:30   0.03   64.9    32   12.7   272    17.9   858.6    0.00 
 107   18:40   0.01   64.4    34   12.8   268    20.0   858.7    0.00 
 107   18:50   0.00   64.4    33   12.9   266    19.1   858.8    0.00 
 107   19:00   0.00   63.7    35   11.3   273    15.6   858.9    0.00 
 107   19:10   0.00   63.2    35   10.0   275    16.7   859.0    0.00 
 107   19:20   0.00   63.0    35   11.3   275    17.0   859.2    0.00 
 107   19:30   0.00   62.9    35   11.4   273    18.3   859.3    0.00 
 107   19:40   0.00   62.6    36    9.1   271    13.3   859.6    0.00 
 107   19:50   0.00   61.4    39    8.5   279    14.0   859.7    0.00 
 107   20:00   0.00   61.7    38    8.0   259    13.1   859.7    0.00 
 107   20:10   0.00   62.3    32    9.2   238    15.1   859.9    0.00 
 107   20:20   0.00   61.9    32    2.6   185     6.9   860.1    0.00 
 107   20:30   0.00   60.8    35    3.3    72     5.8   860.0    0.00 
 107   20:40   0.00   59.2    42    4.8    13     6.8   860.1    0.00 
 107   20:50   0.00   58.8    43    2.4    45     5.2   860.2    0.00 
 107   21:00   0.00   58.8    42    3.3   104     5.7   860.2    0.00 
 107   21:10   0.00   59.4    39    1.5   127     5.0   860.3    0.00 
 107   21:20   0.00   57.0    48    3.8    36     6.4   860.3    0.00 
 107   21:30   0.00   57.2    45    3.5    47     6.1   860.3    0.00 
 107   21:40   0.00   59.5    39    3.2    50     7.2   860.2    0.00 
 107   21:50   0.00   59.8    39    1.3   180     4.7   860.2    0.00 
 107   22:00   0.00   59.9    38    2.4   195     6.8   860.1    0.00 
 107   22:10   0.00   59.5    40    2.0   127     4.3   860.1    0.00 
 107   22:20   0.00   59.2    41    1.9    65     3.9   860.1    0.00 
 107   22:30   0.00   56.7    50    3.3    44     5.2   860.2    0.00 
 107   22:40   0.00   54.8    54    5.9    56     7.5   860.3    0.00 
 107   22:50   0.00   56.0    51    3.3    48     6.0   860.4    0.00 
 107   23:00   0.00   57.1    45    1.9   330     3.8   860.5    0.00 
 107   23:10   0.00   58.4    42    1.9    67     4.3   860.5    0.00 
 107   23:20   0.00   57.5    43    0.6    43     1.9   860.6    0.00 
 107   23:30   0.00   56.3    49    1.2   280     3.4   860.7    0.00 
 107   23:40   0.00   56.1    46    4.2     1    12.4   860.7    0.00 
 107   23:50   0.00   55.4    49    8.9     1    13.5   860.8    0.00 
 108    0:00   0.00   55.1    50    7.3     5    12.6   860.9    0.00 
 108    0:10   0.00   54.4    55    8.6    26    12.0   861.1    0.00 
 108    0:20   0.00   53.7    58   10.6    16    14.0   861.1    0.00 
 108    0:30   0.00   53.2    60   10.0    13    14.2   861.0    0.00 
 108    0:40   0.00   52.8    61    8.5   358    13.2   861.2    0.00 
 108    0:50   0.00   52.2    63    9.6   348    13.8   861.3    0.00 
 108    1:00   0.00   51.7    64    8.7   352    12.2   861.5    0.00 
 108    1:10   0.00   51.0    66    8.6   356    13.2   861.6    0.00 
 108    1:20   0.00   50.4    68    9.8   351    14.5   861.6    0.00 
 108    1:30   0.00   50.1    68    9.0   359    13.0   861.7    0.00 
 108    1:40   0.00   50.1    67    8.7     4    12.7   861.8    0.00 
 108    1:50   0.00   49.6    68   10.0   358    16.3   861.9    0.00 
 108    2:00   0.00   49.4    69   10.1   359    15.6   861.9    0.00 
 108    2:10   0.00   49.0    70    9.3   359    14.7   862.1    0.00 
 108    2:20   0.00   48.8    69   12.8   358    19.5   862.2    0.00 
 108    2:30   0.00   48.5    70   10.7   354    16.7   862.3    0.00 
 108    2:40   0.00   48.4    69    9.9   357    14.7   862.4    0.00 
 108    2:50   0.00   48.3    69    9.4   354    15.6   862.6    0.00 
 108    3:00   0.00   48.0    69   10.3     3    14.2   862.5    0.00 
 108    3:10   0.00   47.6    70    9.0   357    14.2   862.5    0.00 
 108    3:20   0.00   47.4    69    8.3   348    11.9   862.5    0.00 
 108    3:30   0.00   47.0    70    6.8   349     9.5   862.5    0.00 
 108    3:40   0.00   46.4    71    5.1   337     9.4   862.6    0.00 
 108    3:50   0.00   45.7    72    5.6   324     8.8   862.8    0.00 
 108    4:00   0.00   45.7    72    4.7   342     6.2   862.9    0.00 
 108    4:10   0.00   45.2    74    5.5   342     8.3   863.0    0.00 
 108    4:20   0.00   45.3    73    4.9   339     7.3   863.1    0.00 
 108    4:30   0.00   45.1    74    3.8   338     5.6   863.1    0.00 
 108    4:40   0.00   44.7    75    3.2   341     5.5   863.2    0.00 
 108    4:50   0.00   44.5    76    2.1     4     4.1   863.3    0.00 
 108    5:00   0.00   44.7    74    1.8    28     2.7   863.4    0.00 
 108    5:10   0.00   45.4    72    2.6   306     4.9   863.5    0.00 
 108    5:20   0.00   44.6    74    4.8   308     6.6   863.6    0.00 
 108    5:30   0.00   44.3    74    3.3   316     5.8   863.8    0.00 

Return to Sparks, Nevada, UNR Ag Experiment Farm graphs page.


Western Regional Climate Center,wrcc@dri.edu